PWSweather.com
Personal Weather Stations
Station Observations
KMDSOLOM1
solomons, Solomons, MD 20688

solomonsSolomons, MD 20688

Lat: 38.32, Lon: -76.45

Elevation: 5

Station Type:

http://www.act-us.info/weather

High Low Average
Temperature 82.3°F27.9°C 68.8°F20.4°C 75.5°F24.2°C
Dew Point 70.8°F21.6°C 59.5°F15.3°C 65.4°F18.6°C
Winds 9.0 mph 14.5 kmh Calm Calm 3.0 mph W4.8 kmh W
Wind Gusts 13.0 mph20.9 kmh -- 6.0 mph9.7 kmh
Humidity 88% 47% 72%
Pressure 29.78 in1008.5 mb 29.67 in1004.7 mb -
Precipitation 0.00 in0.0 mm - -
Hour Temp Dew Point Humidity Winds Wind Gusts Pressure Precip Precip Rate Daily Precip Total
12:00 AM 71.8°F22.1°C 66.7°F19.3°C 84% 3.0 mph SSW4.8 kmh SSW 6.0 mph9.7 kmh 29.73 in1006.8 mb 0.00 in0.0 mm 0.00 in0.0 mm 0.00 in0.0 mm
12:05 AM 71.7°F22.1°C 66.3°F19.1°C 83% 2.0 mph SSW3.2 kmh SSW 7.0 mph11.3 kmh 29.73 in1006.8 mb 0.00 in0.0 mm 0.00 in0.0 mm 0.00 in0.0 mm
12:10 AM 71.6°F22.0°C 66.5°F19.2°C 84% 2.0 mph SSW3.2 kmh SSW 7.0 mph11.3 kmh 29.73 in1006.8 mb 0.00 in0.0 mm 0.00 in0.0 mm 0.00 in0.0 mm
12:15 AM 71.5°F21.9°C 66.1°F18.9°C 83% 2.0 mph SW3.2 kmh SW 7.0 mph11.3 kmh 29.72 in1006.4 mb 0.00 in0.0 mm 0.00 in0.0 mm 0.00 in0.0 mm
12:20 AM 71.4°F21.9°C 66.0°F18.9°C 83% 4.0 mph SW6.4 kmh SW 7.0 mph11.3 kmh 29.71 in1006.1 mb 0.00 in0.0 mm 0.00 in0.0 mm 0.00 in0.0 mm
12:25 AM 71.4°F21.9°C 66.0°F18.9°C 83% 3.0 mph WSW4.8 kmh WSW 7.0 mph11.3 kmh 29.71 in1006.1 mb 0.00 in0.0 mm 0.00 in0.0 mm 0.00 in0.0 mm
12:30 AM 71.4°F21.9°C 66.0°F18.9°C 83% 5.0 mph WSW8.0 kmh WSW 6.0 mph9.7 kmh 29.70 in1005.8 mb 0.00 in0.0 mm 0.00 in0.0 mm 0.00 in0.0 mm
12:35 AM 71.3°F21.8°C 65.5°F18.6°C 82% 5.0 mph WSW8.0 kmh WSW 8.0 mph12.9 kmh 29.70 in1005.8 mb 0.00 in0.0 mm 0.00 in0.0 mm 0.00 in0.0 mm
12:40 AM 71.3°F21.8°C 65.5°F18.6°C 82% 3.0 mph WSW4.8 kmh WSW 8.0 mph12.9 kmh 29.69 in1005.4 mb 0.00 in0.0 mm 0.00 in0.0 mm 0.00 in0.0 mm
12:45 AM 71.3°F21.8°C 65.9°F18.8°C 83% 5.0 mph WSW8.0 kmh WSW 9.0 mph14.5 kmh 29.69 in1005.4 mb 0.00 in0.0 mm 0.00 in0.0 mm 0.00 in0.0 mm
12:50 AM 71.4°F21.9°C 66.3°F19.1°C 84% 4.0 mph WSW6.4 kmh WSW 9.0 mph14.5 kmh 29.68 in1005.1 mb 0.00 in0.0 mm 0.00 in0.0 mm 0.00 in0.0 mm
12:55 AM 71.5°F21.9°C 66.8°F19.3°C 85% 4.0 mph WSW6.4 kmh WSW 10.0 mph16.1 kmh 29.68 in1005.1 mb 0.00 in0.0 mm 0.00 in0.0 mm 0.00 in0.0 mm
01:00 AM 71.5°F21.9°C 66.4°F19.1°C 84% 7.0 mph W11.3 kmh W 8.0 mph12.9 kmh 29.68 in1005.1 mb 0.00 in0.0 mm 0.00 in0.0 mm 0.00 in0.0 mm
01:05 AM 71.6°F22.0°C 66.9°F19.4°C 85% 6.0 mph W9.7 kmh W 9.0 mph14.5 kmh 29.68 in1005.1 mb 0.00 in0.0 mm 0.00 in0.0 mm 0.00 in0.0 mm
01:10 AM 71.4°F21.9°C 66.7°F19.3°C 85% 6.0 mph W9.7 kmh W 10.0 mph16.1 kmh 29.68 in1005.1 mb 0.00 in0.0 mm 0.00 in0.0 mm 0.00 in0.0 mm
01:15 AM 71.3°F21.8°C 66.2°F19.0°C 84% 6.0 mph W9.7 kmh W 6.0 mph9.7 kmh 29.68 in1005.1 mb 0.00 in0.0 mm 0.00 in0.0 mm 0.00 in0.0 mm
01:20 AM 71.3°F21.8°C 66.6°F19.2°C 85% 4.0 mph W6.4 kmh W 9.0 mph14.5 kmh 29.67 in1004.7 mb 0.00 in0.0 mm 0.00 in0.0 mm 0.00 in0.0 mm
01:25 AM 71.2°F21.8°C 66.5°F19.2°C 85% 6.0 mph W9.7 kmh W 9.0 mph14.5 kmh 29.67 in1004.7 mb 0.00 in0.0 mm 0.00 in0.0 mm 0.00 in0.0 mm
01:30 AM 71.0°F21.7°C 66.3°F19.1°C 85% 6.0 mph W9.7 kmh W 7.0 mph11.3 kmh 29.67 in1004.7 mb 0.00 in0.0 mm 0.00 in0.0 mm 0.00 in0.0 mm
01:35 AM 70.9°F21.6°C 66.5°F19.2°C 86% 7.0 mph W11.3 kmh W 7.0 mph11.3 kmh 29.68 in1005.1 mb 0.00 in0.0 mm 0.00 in0.0 mm 0.00 in0.0 mm
01:40 AM 70.9°F21.6°C 66.5°F19.2°C 86% 2.0 mph W3.2 kmh W 7.0 mph11.3 kmh 29.68 in1005.1 mb 0.00 in0.0 mm 0.00 in0.0 mm 0.00 in0.0 mm
01:45 AM 70.7°F21.5°C 66.0°F18.9°C 85% Calm Calm 4.0 mph6.4 kmh 29.68 in1005.1 mb 0.00 in0.0 mm 0.00 in0.0 mm 0.00 in0.0 mm
01:50 AM 70.6°F21.4°C 65.9°F18.8°C 85% 3.0 mph W4.8 kmh W 6.0 mph9.7 kmh 29.69 in1005.4 mb 0.00 in0.0 mm 0.00 in0.0 mm 0.00 in0.0 mm
01:55 AM 70.6°F21.4°C 65.9°F18.8°C 85% 2.0 mph W3.2 kmh W 6.0 mph9.7 kmh 29.69 in1005.4 mb 0.00 in0.0 mm 0.00 in0.0 mm 0.00 in0.0 mm
02:00 AM 70.6°F21.4°C 65.9°F18.8°C 85% 3.0 mph W4.8 kmh W 6.0 mph9.7 kmh 29.70 in1005.8 mb 0.00 in0.0 mm 0.00 in0.0 mm 0.00 in0.0 mm
02:05 AM 70.6°F21.4°C 65.9°F18.8°C 85% 3.0 mph W4.8 kmh W 6.0 mph9.7 kmh 29.70 in1005.8 mb 0.00 in0.0 mm 0.00 in0.0 mm 0.00 in0.0 mm
02:10 AM 70.6°F21.4°C 65.5°F18.6°C 84% 2.0 mph W3.2 kmh W 7.0 mph11.3 kmh 29.70 in1005.8 mb 0.00 in0.0 mm 0.00 in0.0 mm 0.00 in0.0 mm
02:15 AM 70.7°F21.5°C 65.6°F18.7°C 84% 3.0 mph SW4.8 kmh SW 8.0 mph12.9 kmh 29.71 in1006.1 mb 0.00 in0.0 mm 0.00 in0.0 mm 0.00 in0.0 mm
02:20 AM 70.9°F21.6°C 65.8°F18.8°C 84% 1.0 mph SW1.6 kmh SW 8.0 mph12.9 kmh 29.71 in1006.1 mb 0.00 in0.0 mm 0.00 in0.0 mm 0.00 in0.0 mm
02:25 AM 70.9°F21.6°C 65.8°F18.8°C 84% 4.0 mph SW6.4 kmh SW 8.0 mph12.9 kmh 29.71 in1006.1 mb 0.00 in0.0 mm 0.00 in0.0 mm 0.00 in0.0 mm
02:30 AM 70.9°F21.6°C 66.2°F19.0°C 85% 4.0 mph SW6.4 kmh SW 7.0 mph11.3 kmh 29.70 in1005.8 mb 0.00 in0.0 mm 0.00 in0.0 mm 0.00 in0.0 mm
02:35 AM 70.7°F21.5°C 66.0°F18.9°C 85% 2.0 mph SW3.2 kmh SW 7.0 mph11.3 kmh 29.70 in1005.8 mb 0.00 in0.0 mm 0.00 in0.0 mm 0.00 in0.0 mm
02:40 AM 70.6°F21.4°C 65.9°F18.8°C 85% 3.0 mph SW4.8 kmh SW 7.0 mph11.3 kmh 29.70 in1005.8 mb 0.00 in0.0 mm 0.00 in0.0 mm 0.00 in0.0 mm
02:45 AM 70.4°F21.3°C 65.7°F18.7°C 85% 2.0 mph SW3.2 kmh SW 6.0 mph9.7 kmh 29.70 in1005.8 mb 0.00 in0.0 mm 0.00 in0.0 mm 0.00 in0.0 mm
02:50 AM 70.2°F21.2°C 65.5°F18.6°C 85% 4.0 mph SW6.4 kmh SW 6.0 mph9.7 kmh 29.70 in1005.8 mb 0.00 in0.0 mm 0.00 in0.0 mm 0.00 in0.0 mm
02:55 AM 70.0°F21.1°C 65.3°F18.5°C 85% 5.0 mph SW8.0 kmh SW 7.0 mph11.3 kmh 29.70 in1005.8 mb 0.00 in0.0 mm 0.00 in0.0 mm 0.00 in0.0 mm
03:00 AM 69.9°F21.1°C 65.5°F18.6°C 86% 6.0 mph SW9.7 kmh SW 8.0 mph12.9 kmh 29.70 in1005.8 mb 0.00 in0.0 mm 0.00 in0.0 mm 0.00 in0.0 mm
03:05 AM 69.9°F21.1°C 65.5°F18.6°C 86% 3.0 mph SW4.8 kmh SW 8.0 mph12.9 kmh 29.70 in1005.8 mb 0.00 in0.0 mm 0.00 in0.0 mm 0.00 in0.0 mm
03:10 AM 69.8°F21.0°C 65.4°F18.6°C 86% 4.0 mph SW6.4 kmh SW 8.0 mph12.9 kmh 29.70 in1005.8 mb 0.00 in0.0 mm 0.00 in0.0 mm 0.00 in0.0 mm
03:15 AM 69.8°F21.0°C 65.1°F18.4°C 85% 7.0 mph SW11.3 kmh SW 7.0 mph11.3 kmh 29.70 in1005.8 mb 0.00 in0.0 mm 0.00 in0.0 mm 0.00 in0.0 mm
03:20 AM 69.8°F21.0°C 65.1°F18.4°C 85% 4.0 mph SW6.4 kmh SW 7.0 mph11.3 kmh 29.71 in1006.1 mb 0.00 in0.0 mm 0.00 in0.0 mm 0.00 in0.0 mm
03:25 AM 69.8°F21.0°C 65.1°F18.4°C 85% 4.0 mph SW6.4 kmh SW 7.0 mph11.3 kmh 29.71 in1006.1 mb 0.00 in0.0 mm 0.00 in0.0 mm 0.00 in0.0 mm
03:30 AM 69.9°F21.1°C 65.2°F18.4°C 85% 3.0 mph SW4.8 kmh SW 6.0 mph9.7 kmh 29.71 in1006.1 mb 0.00 in0.0 mm 0.00 in0.0 mm 0.00 in0.0 mm
03:35 AM 69.8°F21.0°C 65.1°F18.4°C 85% 3.0 mph SW4.8 kmh SW 7.0 mph11.3 kmh 29.71 in1006.1 mb 0.00 in0.0 mm 0.00 in0.0 mm 0.00 in0.0 mm
03:40 AM 69.8°F21.0°C 65.1°F18.4°C 85% 3.0 mph SW4.8 kmh SW 7.0 mph11.3 kmh 29.71 in1006.1 mb 0.00 in0.0 mm 0.00 in0.0 mm 0.00 in0.0 mm
03:45 AM 69.9°F21.1°C 65.5°F18.6°C 86% 6.0 mph SW9.7 kmh SW 7.0 mph11.3 kmh 29.71 in1006.1 mb 0.00 in0.0 mm 0.00 in0.0 mm 0.00 in0.0 mm
03:50 AM 70.0°F21.1°C 65.6°F18.7°C 86% 4.0 mph SW6.4 kmh SW 7.0 mph11.3 kmh 29.71 in1006.1 mb 0.00 in0.0 mm 0.00 in0.0 mm 0.00 in0.0 mm
03:55 AM 70.1°F21.2°C 65.7°F18.7°C 86% 4.0 mph SW6.4 kmh SW 8.0 mph12.9 kmh 29.72 in1006.4 mb 0.00 in0.0 mm 0.00 in0.0 mm 0.00 in0.0 mm
04:00 AM 70.2°F21.2°C 66.2°F19.0°C 87% 2.0 mph SW3.2 kmh SW 5.0 mph8.0 kmh 29.72 in1006.4 mb 0.00 in0.0 mm 0.00 in0.0 mm 0.00 in0.0 mm
04:05 AM 70.3°F21.3°C 66.3°F19.1°C 87% 5.0 mph SW8.0 kmh SW 5.0 mph8.0 kmh 29.72 in1006.4 mb 0.00 in0.0 mm 0.00 in0.0 mm 0.00 in0.0 mm
04:10 AM 70.1°F21.2°C 65.7°F18.7°C 86% 6.0 mph SW9.7 kmh SW 8.0 mph12.9 kmh 29.72 in1006.4 mb 0.00 in0.0 mm 0.00 in0.0 mm 0.00 in0.0 mm
04:15 AM 69.8°F21.0°C 65.1°F18.4°C 85% 3.0 mph SSW4.8 kmh SSW 6.0 mph9.7 kmh 29.72 in1006.4 mb 0.00 in0.0 mm 0.00 in0.0 mm 0.00 in0.0 mm
04:20 AM 69.5°F20.8°C 64.8°F18.2°C 85% 4.0 mph SSW6.4 kmh SSW 9.0 mph14.5 kmh 29.72 in1006.4 mb 0.00 in0.0 mm 0.00 in0.0 mm 0.00 in0.0 mm
04:25 AM 69.3°F20.7°C 64.9°F18.3°C 86% 4.0 mph SSW6.4 kmh SSW 9.0 mph14.5 kmh 29.72 in1006.4 mb 0.00 in0.0 mm 0.00 in0.0 mm 0.00 in0.0 mm
04:30 AM 69.2°F20.7°C 64.8°F18.2°C 86% 3.0 mph SSW4.8 kmh SSW 8.0 mph12.9 kmh 29.72 in1006.4 mb 0.00 in0.0 mm 0.00 in0.0 mm 0.00 in0.0 mm
04:35 AM 68.9°F20.5°C 64.6°F18.1°C 86% 5.0 mph SSW8.0 kmh SSW 8.0 mph12.9 kmh 29.72 in1006.4 mb 0.00 in0.0 mm 0.00 in0.0 mm 0.00 in0.0 mm
04:40 AM 68.8°F20.4°C 64.8°F18.2°C 87% 4.0 mph SW6.4 kmh SW 8.0 mph12.9 kmh 29.72 in1006.4 mb 0.00 in0.0 mm 0.00 in0.0 mm 0.00 in0.0 mm
04:45 AM 68.8°F20.4°C 64.8°F18.2°C 87% 3.0 mph SW4.8 kmh SW 6.0 mph9.7 kmh 29.73 in1006.8 mb 0.00 in0.0 mm 0.00 in0.0 mm 0.00 in0.0 mm
04:50 AM 68.9°F20.5°C 64.9°F18.3°C 87% 3.0 mph SW4.8 kmh SW 7.0 mph11.3 kmh 29.73 in1006.8 mb 0.00 in0.0 mm 0.00 in0.0 mm 0.00 in0.0 mm
04:55 AM 68.9°F20.5°C 64.9°F18.3°C 87% 2.0 mph SW3.2 kmh SW 7.0 mph11.3 kmh 29.73 in1006.8 mb 0.00 in0.0 mm 0.00 in0.0 mm 0.00 in0.0 mm
05:00 AM 68.9°F20.5°C 64.9°F18.3°C 87% 4.0 mph SW6.4 kmh SW 7.0 mph11.3 kmh 29.73 in1006.8 mb 0.00 in0.0 mm 0.00 in0.0 mm 0.00 in0.0 mm
05:05 AM 69.0°F20.6°C 65.0°F18.3°C 87% 4.0 mph SW6.4 kmh SW 8.0 mph12.9 kmh 29.73 in1006.8 mb 0.00 in0.0 mm 0.00 in0.0 mm 0.00 in0.0 mm
05:10 AM 69.0°F20.6°C 65.0°F18.3°C 87% 2.0 mph SW3.2 kmh SW 8.0 mph12.9 kmh 29.73 in1006.8 mb 0.00 in0.0 mm 0.00 in0.0 mm 0.00 in0.0 mm
05:15 AM 69.0°F20.6°C 65.0°F18.3°C 87% 5.0 mph SW8.0 kmh SW 6.0 mph9.7 kmh 29.73 in1006.8 mb 0.00 in0.0 mm 0.00 in0.0 mm 0.00 in0.0 mm
05:20 AM 69.1°F20.6°C 65.1°F18.4°C 87% 3.0 mph SW4.8 kmh SW 6.0 mph9.7 kmh 29.73 in1006.8 mb 0.00 in0.0 mm 0.00 in0.0 mm 0.00 in0.0 mm
05:25 AM 69.2°F20.7°C 65.5°F18.6°C 88% 2.0 mph SW3.2 kmh SW 7.0 mph11.3 kmh 29.74 in1007.1 mb 0.00 in0.0 mm 0.00 in0.0 mm 0.00 in0.0 mm
05:30 AM 69.3°F20.7°C 65.3°F18.5°C 87% 3.0 mph SW4.8 kmh SW 7.0 mph11.3 kmh 29.74 in1007.1 mb 0.00 in0.0 mm 0.00 in0.0 mm 0.00 in0.0 mm
05:35 AM 69.3°F20.7°C 65.3°F18.5°C 87% 5.0 mph SW8.0 kmh SW 7.0 mph11.3 kmh 29.74 in1007.1 mb 0.00 in0.0 mm 0.00 in0.0 mm 0.00 in0.0 mm
05:40 AM 69.4°F20.8°C 65.4°F18.6°C 87% 5.0 mph SW8.0 kmh SW 7.0 mph11.3 kmh 29.74 in1007.1 mb 0.00 in0.0 mm 0.00 in0.0 mm 0.00 in0.0 mm
05:45 AM 69.5°F20.8°C 65.5°F18.6°C 87% 3.0 mph SW4.8 kmh SW 5.0 mph8.0 kmh 29.74 in1007.1 mb 0.00 in0.0 mm 0.00 in0.0 mm 0.00 in0.0 mm
05:50 AM 69.5°F20.8°C 65.5°F18.6°C 87% 6.0 mph SW9.7 kmh SW 6.0 mph9.7 kmh 29.74 in1007.1 mb 0.00 in0.0 mm 0.00 in0.0 mm 0.00 in0.0 mm
05:55 AM 69.5°F20.8°C 65.5°F18.6°C 87% 5.0 mph SW8.0 kmh SW 6.0 mph9.7 kmh 29.75 in1007.5 mb 0.00 in0.0 mm 0.00 in0.0 mm 0.00 in0.0 mm
06:00 AM 69.5°F20.8°C 65.5°F18.6°C 87% 3.0 mph SW4.8 kmh SW 4.0 mph6.4 kmh 29.75 in1007.5 mb 0.00 in0.0 mm 0.00 in0.0 mm 0.00 in0.0 mm
06:05 AM 69.6°F20.9°C 65.6°F18.7°C 87% 2.0 mph SW3.2 kmh SW 4.0 mph6.4 kmh 29.75 in1007.5 mb 0.00 in0.0 mm 0.00 in0.0 mm 0.00 in0.0 mm
06:10 AM 69.9°F21.1°C 66.2°F19.0°C 88% 1.0 mph SW1.6 kmh SW 4.0 mph6.4 kmh 29.75 in1007.5 mb 0.00 in0.0 mm 0.00 in0.0 mm 0.00 in0.0 mm
06:15 AM 70.3°F21.3°C 66.6°F19.2°C 88% 2.0 mph SW3.2 kmh SW 4.0 mph6.4 kmh 29.75 in1007.5 mb 0.00 in0.0 mm 0.00 in0.0 mm 0.00 in0.0 mm
06:20 AM 70.6°F21.4°C 66.9°F19.4°C 88% 6.0 mph SW9.7 kmh SW 6.0 mph9.7 kmh 29.75 in1007.5 mb 0.00 in0.0 mm 0.00 in0.0 mm 0.00 in0.0 mm
06:25 AM 70.9°F21.6°C 66.8°F19.3°C 87% 4.0 mph WSW6.4 kmh WSW 6.0 mph9.7 kmh 29.75 in1007.5 mb 0.00 in0.0 mm 0.00 in0.0 mm 0.00 in0.0 mm
06:30 AM 71.0°F21.7°C 66.9°F19.4°C 87% 2.0 mph WSW3.2 kmh WSW 7.0 mph11.3 kmh 29.75 in1007.5 mb 0.00 in0.0 mm 0.00 in0.0 mm 0.00 in0.0 mm
06:35 AM 71.1°F21.7°C 66.7°F19.3°C 86% 5.0 mph WSW8.0 kmh WSW 9.0 mph14.5 kmh 29.74 in1007.1 mb 0.00 in0.0 mm 0.00 in0.0 mm 0.00 in0.0 mm
06:40 AM 71.0°F21.7°C 66.6°F19.2°C 86% 4.0 mph WSW6.4 kmh WSW 9.0 mph14.5 kmh 29.75 in1007.5 mb 0.00 in0.0 mm 0.00 in0.0 mm 0.00 in0.0 mm
06:45 AM 71.0°F21.7°C 66.9°F19.4°C 87% 3.0 mph SW4.8 kmh SW 8.0 mph12.9 kmh 29.75 in1007.5 mb 0.00 in0.0 mm 0.00 in0.0 mm 0.00 in0.0 mm
06:50 AM 70.9°F21.6°C 66.8°F19.3°C 87% 2.0 mph WSW3.2 kmh WSW 8.0 mph12.9 kmh 29.75 in1007.5 mb 0.00 in0.0 mm 0.00 in0.0 mm 0.00 in0.0 mm
06:55 AM 70.9°F21.6°C 66.8°F19.3°C 87% 3.0 mph WSW4.8 kmh WSW 9.0 mph14.5 kmh 29.75 in1007.5 mb 0.00 in0.0 mm 0.00 in0.0 mm 0.00 in0.0 mm
07:00 AM 70.9°F21.6°C 67.2°F19.6°C 88% 4.0 mph WSW6.4 kmh WSW 8.0 mph12.9 kmh 29.75 in1007.5 mb 0.00 in0.0 mm 0.00 in0.0 mm 0.00 in0.0 mm
07:05 AM 70.9°F21.6°C 67.2°F19.6°C 88% 4.0 mph WSW6.4 kmh WSW 10.0 mph16.1 kmh 29.75 in1007.5 mb 0.00 in0.0 mm 0.00 in0.0 mm 0.00 in0.0 mm
07:10 AM 71.2°F21.8°C 67.5°F19.7°C 88% 3.0 mph WSW4.8 kmh WSW 10.0 mph16.1 kmh 29.75 in1007.5 mb 0.00 in0.0 mm 0.00 in0.0 mm 0.00 in0.0 mm
07:15 AM 71.5°F21.9°C 67.8°F19.9°C 88% 5.0 mph WSW8.0 kmh WSW 9.0 mph14.5 kmh 29.75 in1007.5 mb 0.00 in0.0 mm 0.00 in0.0 mm 0.00 in0.0 mm
07:20 AM 71.7°F22.1°C 68.0°F20.0°C 88% 3.0 mph WSW4.8 kmh WSW 9.0 mph14.5 kmh 29.75 in1007.5 mb 0.00 in0.0 mm 0.00 in0.0 mm 0.00 in0.0 mm
07:25 AM 72.0°F22.2°C 68.3°F20.2°C 88% 7.0 mph WSW11.3 kmh WSW 9.0 mph14.5 kmh 29.75 in1007.5 mb 0.00 in0.0 mm 0.00 in0.0 mm 0.00 in0.0 mm
07:30 AM 72.3°F22.4°C 68.6°F20.3°C 88% 4.0 mph W6.4 kmh W 6.0 mph9.7 kmh 29.75 in1007.5 mb 0.00 in0.0 mm 0.00 in0.0 mm 0.00 in0.0 mm
07:35 AM 72.9°F22.7°C 69.1°F20.6°C 88% 6.0 mph W9.7 kmh W 7.0 mph11.3 kmh 29.75 in1007.5 mb 0.00 in0.0 mm 0.00 in0.0 mm 0.00 in0.0 mm
07:40 AM 73.5°F23.1°C 69.4°F20.8°C 87% 2.0 mph W3.2 kmh W 7.0 mph11.3 kmh 29.75 in1007.5 mb 0.00 in0.0 mm 0.00 in0.0 mm 0.00 in0.0 mm
07:45 AM 74.4°F23.6°C 70.3°F21.3°C 87% 2.0 mph W3.2 kmh W 4.0 mph6.4 kmh 29.76 in1007.8 mb 0.00 in0.0 mm 0.00 in0.0 mm 0.00 in0.0 mm
07:50 AM 74.8°F23.8°C 70.3°F21.3°C 86% 1.0 mph W1.6 kmh W 4.0 mph6.4 kmh 29.76 in1007.8 mb 0.00 in0.0 mm 0.00 in0.0 mm 0.00 in0.0 mm
07:55 AM 75.1°F23.9°C 70.3°F21.3°C 85% 4.0 mph W6.4 kmh W 7.0 mph11.3 kmh 29.76 in1007.8 mb 0.00 in0.0 mm 0.00 in0.0 mm 0.00 in0.0 mm
08:00 AM 75.3°F24.1°C 70.8°F21.6°C 86% 1.0 mph W1.6 kmh W 4.0 mph6.4 kmh 29.76 in1007.8 mb 0.00 in0.0 mm 0.00 in0.0 mm 0.00 in0.0 mm
08:05 AM 75.7°F24.3°C 70.5°F21.4°C 84% 1.0 mph W1.6 kmh W 4.0 mph6.4 kmh 29.76 in1007.8 mb 0.00 in0.0 mm 0.00 in0.0 mm 0.00 in0.0 mm
08:10 AM 75.8°F24.3°C 70.6°F21.4°C 84% 1.0 mph W1.6 kmh W 4.0 mph6.4 kmh 29.77 in1008.1 mb 0.00 in0.0 mm 0.00 in0.0 mm 0.00 in0.0 mm
08:15 AM 76.0°F24.4°C 69.4°F20.8°C 80% 8.0 mph WNW12.9 kmh WNW 8.0 mph12.9 kmh 29.77 in1008.1 mb 0.00 in0.0 mm 0.00 in0.0 mm 0.00 in0.0 mm
08:20 AM 76.1°F24.5°C 69.1°F20.6°C 79% 6.0 mph NNW9.7 kmh NNW 11.0 mph17.7 kmh 29.77 in1008.1 mb 0.00 in0.0 mm 0.00 in0.0 mm 0.00 in0.0 mm
08:25 AM 76.0°F24.4°C 67.9°F19.9°C 76% 5.0 mph NNW8.0 kmh NNW 11.0 mph17.7 kmh 29.77 in1008.1 mb 0.00 in0.0 mm 0.00 in0.0 mm 0.00 in0.0 mm
08:30 AM 76.1°F24.5°C 68.4°F20.2°C 77% 6.0 mph NW9.7 kmh NW 9.0 mph14.5 kmh 29.77 in1008.1 mb 0.00 in0.0 mm 0.00 in0.0 mm 0.00 in0.0 mm
08:35 AM 75.9°F24.4°C 68.6°F20.3°C 78% 6.0 mph NNW9.7 kmh NNW 9.0 mph14.5 kmh 29.77 in1008.1 mb 0.00 in0.0 mm 0.00 in0.0 mm 0.00 in0.0 mm
08:40 AM 75.8°F24.3°C 67.7°F19.8°C 76% 6.0 mph NNW9.7 kmh NNW 13.0 mph20.9 kmh 29.77 in1008.1 mb 0.00 in0.0 mm 0.00 in0.0 mm 0.00 in0.0 mm
08:45 AM 75.7°F24.3°C 68.4°F20.2°C 78% 9.0 mph N14.5 kmh N 10.0 mph16.1 kmh 29.78 in1008.5 mb 0.00 in0.0 mm 0.00 in0.0 mm 0.00 in0.0 mm
08:50 AM 75.6°F24.2°C 68.6°F20.3°C 79% 5.0 mph N8.0 kmh N 11.0 mph17.7 kmh 29.78 in1008.5 mb 0.00 in0.0 mm 0.00 in0.0 mm 0.00 in0.0 mm
08:55 AM 75.6°F24.2°C 68.3°F20.2°C 78% 6.0 mph N9.7 kmh N 11.0 mph17.7 kmh 29.78 in1008.5 mb 0.00 in0.0 mm 0.00 in0.0 mm 0.00 in0.0 mm
09:00 AM 75.7°F24.3°C 69.1°F20.6°C 80% 7.0 mph N11.3 kmh N 9.0 mph14.5 kmh 29.77 in1008.1 mb 0.00 in0.0 mm 0.00 in0.0 mm 0.00 in0.0 mm
09:05 AM 75.7°F24.3°C 68.7°F20.4°C 79% 5.0 mph N8.0 kmh N 9.0 mph14.5 kmh 29.77 in1008.1 mb 0.00 in0.0 mm 0.00 in0.0 mm 0.00 in0.0 mm
09:10 AM 75.8°F24.3°C 69.2°F20.7°C 80% 7.0 mph N11.3 kmh N 9.0 mph14.5 kmh 29.77 in1008.1 mb 0.00 in0.0 mm 0.00 in0.0 mm 0.00 in0.0 mm
09:15 AM 75.8°F24.3°C 68.8°F20.4°C 79% 5.0 mph N8.0 kmh N 8.0 mph12.9 kmh 29.77 in1008.1 mb 0.00 in0.0 mm 0.00 in0.0 mm 0.00 in0.0 mm
09:20 AM 75.9°F24.4°C 68.9°F20.5°C 79% 7.0 mph N11.3 kmh N 8.0 mph12.9 kmh 29.77 in1008.1 mb 0.00 in0.0 mm 0.00 in0.0 mm 0.00 in0.0 mm
09:25 AM 76.1°F24.5°C 68.4°F20.2°C 77% 7.0 mph N11.3 kmh N 8.0 mph12.9 kmh 29.77 in1008.1 mb 0.00 in0.0 mm 0.00 in0.0 mm 0.00 in0.0 mm
09:30 AM 76.3°F24.6°C 67.8°F19.9°C 75% 8.0 mph N12.9 kmh N 8.0 mph12.9 kmh 29.77 in1008.1 mb 0.00 in0.0 mm 0.00 in0.0 mm 0.00 in0.0 mm
09:35 AM 76.7°F24.8°C 67.8°F19.9°C 74% 4.0 mph N6.4 kmh N 8.0 mph12.9 kmh 29.77 in1008.1 mb 0.00 in0.0 mm 0.00 in0.0 mm 0.00 in0.0 mm
09:40 AM 76.7°F24.8°C 67.4°F19.7°C 73% 3.0 mph N4.8 kmh N 8.0 mph12.9 kmh 29.77 in1008.1 mb 0.00 in0.0 mm 0.00 in0.0 mm 0.00 in0.0 mm
09:45 AM 76.9°F24.9°C 68.0°F20.0°C 74% 3.0 mph N4.8 kmh N 5.0 mph8.0 kmh 29.77 in1008.1 mb 0.00 in0.0 mm 0.00 in0.0 mm 0.00 in0.0 mm
09:50 AM 77.2°F25.1°C 67.9°F19.9°C 73% 5.0 mph N8.0 kmh N 8.0 mph12.9 kmh 29.77 in1008.1 mb 0.00 in0.0 mm 0.00 in0.0 mm 0.00 in0.0 mm
09:55 AM 77.1°F25.1°C 68.2°F20.1°C 74% 4.0 mph N6.4 kmh N 8.0 mph12.9 kmh 29.77 in1008.1 mb 0.00 in0.0 mm 0.00 in0.0 mm 0.00 in0.0 mm
10:00 AM 77.2°F25.1°C 66.7°F19.3°C 70% 4.0 mph N6.4 kmh N 6.0 mph9.7 kmh 29.77 in1008.1 mb 0.00 in0.0 mm 0.00 in0.0 mm 0.00 in0.0 mm
10:05 AM 77.8°F25.4°C 66.0°F18.9°C 67% 2.0 mph NNE3.2 kmh NNE 8.0 mph12.9 kmh 29.77 in1008.1 mb 0.00 in0.0 mm 0.00 in0.0 mm 0.00 in0.0 mm
10:10 AM 78.2°F25.7°C 67.6°F19.8°C 70% 3.0 mph N4.8 kmh N 8.0 mph12.9 kmh 29.77 in1008.1 mb 0.00 in0.0 mm 0.00 in0.0 mm 0.00 in0.0 mm
10:15 AM 78.2°F25.7°C 66.4°F19.1°C 67% 5.0 mph N8.0 kmh N 6.0 mph9.7 kmh 29.77 in1008.1 mb 0.00 in0.0 mm 0.00 in0.0 mm 0.00 in0.0 mm
10:20 AM 78.0°F25.6°C 67.0°F19.4°C 69% 6.0 mph N9.7 kmh N 10.0 mph16.1 kmh 29.77 in1008.1 mb 0.00 in0.0 mm 0.00 in0.0 mm 0.00 in0.0 mm
10:25 AM 78.3°F25.7°C 66.9°F19.4°C 68% 5.0 mph N8.0 kmh N 10.0 mph16.1 kmh 29.77 in1008.1 mb 0.00 in0.0 mm 0.00 in0.0 mm 0.00 in0.0 mm
10:30 AM 78.2°F25.7°C 67.2°F19.6°C 69% 5.0 mph N8.0 kmh N 8.0 mph12.9 kmh 29.77 in1008.1 mb 0.00 in0.0 mm 0.00 in0.0 mm 0.00 in0.0 mm
10:35 AM 78.3°F25.7°C 67.7°F19.8°C 70% 6.0 mph N9.7 kmh N 9.0 mph14.5 kmh 29.77 in1008.1 mb 0.00 in0.0 mm 0.00 in0.0 mm 0.00 in0.0 mm
10:40 AM 78.3°F25.7°C 65.6°F18.7°C 65% 8.0 mph NNE12.9 kmh NNE 11.0 mph17.7 kmh 29.76 in1007.8 mb 0.00 in0.0 mm 0.00 in0.0 mm 0.00 in0.0 mm
10:45 AM 78.3°F25.7°C 65.6°F18.7°C 65% 9.0 mph N14.5 kmh N 10.0 mph16.1 kmh 29.77 in1008.1 mb 0.00 in0.0 mm 0.00 in0.0 mm 0.00 in0.0 mm
10:50 AM 78.3°F25.7°C 65.1°F18.4°C 64% 9.0 mph N14.5 kmh N 10.0 mph16.1 kmh 29.77 in1008.1 mb 0.00 in0.0 mm 0.00 in0.0 mm 0.00 in0.0 mm
10:55 AM 78.3°F25.7°C 64.7°F18.2°C 63% 8.0 mph N12.9 kmh N 10.0 mph16.1 kmh 29.77 in1008.1 mb 0.00 in0.0 mm 0.00 in0.0 mm 0.00 in0.0 mm
11:00 AM 78.5°F25.8°C 65.8°F18.8°C 65% 4.0 mph N6.4 kmh N 6.0 mph9.7 kmh 29.76 in1007.8 mb 0.00 in0.0 mm 0.00 in0.0 mm 0.00 in0.0 mm
11:05 AM 78.9°F26.1°C 64.3°F17.9°C 61% 5.0 mph N8.0 kmh N 6.0 mph9.7 kmh 29.77 in1008.1 mb 0.00 in0.0 mm 0.00 in0.0 mm 0.00 in0.0 mm
11:10 AM 78.7°F25.9°C 64.6°F18.1°C 62% 6.0 mph NNW9.7 kmh NNW 6.0 mph9.7 kmh 29.76 in1007.8 mb 0.00 in0.0 mm 0.00 in0.0 mm 0.00 in0.0 mm
11:15 AM 79.6°F26.4°C 65.0°F18.3°C 61% 3.0 mph NNW4.8 kmh NNW 6.0 mph9.7 kmh 29.76 in1007.8 mb 0.00 in0.0 mm 0.00 in0.0 mm 0.00 in0.0 mm
11:20 AM 80.1°F26.7°C 66.8°F19.3°C 64% 2.0 mph W3.2 kmh W 7.0 mph11.3 kmh 29.76 in1007.8 mb 0.00 in0.0 mm 0.00 in0.0 mm 0.00 in0.0 mm
11:25 AM 80.3°F26.8°C 67.0°F19.4°C 64% 7.0 mph WSW11.3 kmh WSW 10.0 mph16.1 kmh 29.76 in1007.8 mb 0.00 in0.0 mm 0.00 in0.0 mm 0.00 in0.0 mm
11:30 AM 80.2°F26.8°C 66.9°F19.4°C 64% 2.0 mph WSW3.2 kmh WSW 8.0 mph12.9 kmh 29.76 in1007.8 mb 0.00 in0.0 mm 0.00 in0.0 mm 0.00 in0.0 mm
11:35 AM 80.6°F27.0°C 65.9°F18.8°C 61% 2.0 mph W3.2 kmh W 8.0 mph12.9 kmh 29.76 in1007.8 mb 0.00 in0.0 mm 0.00 in0.0 mm 0.00 in0.0 mm
11:40 AM 80.3°F26.8°C 66.1°F18.9°C 62% 2.0 mph W3.2 kmh W 8.0 mph12.9 kmh 29.75 in1007.5 mb 0.00 in0.0 mm 0.00 in0.0 mm 0.00 in0.0 mm
11:45 AM 80.7°F27.1°C 66.5°F19.2°C 62% 2.0 mph W3.2 kmh W 3.0 mph4.8 kmh 29.75 in1007.5 mb 0.00 in0.0 mm 0.00 in0.0 mm 0.00 in0.0 mm
11:50 AM 79.9°F26.6°C 66.7°F19.3°C 64% 8.0 mph NNW12.9 kmh NNW 10.0 mph16.1 kmh 29.75 in1007.5 mb 0.00 in0.0 mm 0.00 in0.0 mm 0.00 in0.0 mm
11:55 AM 79.5°F26.4°C 66.7°F19.3°C 65% 3.0 mph NNW4.8 kmh NNW 10.0 mph16.1 kmh 29.75 in1007.5 mb 0.00 in0.0 mm 0.00 in0.0 mm 0.00 in0.0 mm
12:00 PM 81.0°F27.2°C 65.3°F18.5°C 59% 2.0 mph NNW3.2 kmh NNW 4.0 mph6.4 kmh 29.75 in1007.5 mb 0.00 in0.0 mm 0.00 in0.0 mm 0.00 in0.0 mm
12:05 PM 81.5°F27.5°C 64.3°F17.9°C 56% 2.0 mph WNW3.2 kmh WNW 9.0 mph14.5 kmh 29.74 in1007.1 mb 0.00 in0.0 mm 0.00 in0.0 mm 0.00 in0.0 mm
12:10 PM 81.5°F27.5°C 64.8°F18.2°C 57% 6.0 mph W9.7 kmh W 9.0 mph14.5 kmh 29.74 in1007.1 mb 0.00 in0.0 mm 0.00 in0.0 mm 0.00 in0.0 mm
12:15 PM 81.3°F27.4°C 65.1°F18.4°C 58% 2.0 mph W3.2 kmh W 7.0 mph11.3 kmh 29.74 in1007.1 mb 0.00 in0.0 mm 0.00 in0.0 mm 0.00 in0.0 mm
12:20 PM 80.5°F26.9°C 65.8°F18.8°C 61% 4.0 mph NW6.4 kmh NW 8.0 mph12.9 kmh 29.74 in1007.1 mb 0.00 in0.0 mm 0.00 in0.0 mm 0.00 in0.0 mm
12:25 PM 81.0°F27.2°C 65.3°F18.5°C 59% 4.0 mph WNW6.4 kmh WNW 8.0 mph12.9 kmh 29.74 in1007.1 mb 0.00 in0.0 mm 0.00 in0.0 mm 0.00 in0.0 mm
12:30 PM 80.9°F27.2°C 63.8°F17.7°C 56% 3.0 mph WNW4.8 kmh WNW 7.0 mph11.3 kmh 29.74 in1007.1 mb 0.00 in0.0 mm 0.00 in0.0 mm 0.00 in0.0 mm
12:35 PM 81.0°F27.2°C 64.4°F18.0°C 57% 4.0 mph WNW6.4 kmh WNW 7.0 mph11.3 kmh 29.74 in1007.1 mb 0.00 in0.0 mm 0.00 in0.0 mm 0.00 in0.0 mm
12:40 PM 81.5°F27.5°C 64.8°F18.2°C 57% 5.0 mph WNW8.0 kmh WNW 8.0 mph12.9 kmh 29.74 in1007.1 mb 0.00 in0.0 mm 0.00 in0.0 mm 0.00 in0.0 mm
12:45 PM 81.4°F27.4°C 64.2°F17.9°C 56% 4.0 mph WNW6.4 kmh WNW 7.0 mph11.3 kmh 29.74 in1007.1 mb 0.00 in0.0 mm 0.00 in0.0 mm 0.00 in0.0 mm
12:50 PM 81.2°F27.3°C 64.0°F17.8°C 56% 3.0 mph NW4.8 kmh NW 9.0 mph14.5 kmh 29.74 in1007.1 mb 0.00 in0.0 mm 0.00 in0.0 mm 0.00 in0.0 mm
12:55 PM 81.1°F27.3°C 65.4°F18.6°C 59% 4.0 mph NW6.4 kmh NW 9.0 mph14.5 kmh 29.74 in1007.1 mb 0.00 in0.0 mm 0.00 in0.0 mm 0.00 in0.0 mm
01:00 PM 81.5°F27.5°C 65.8°F18.8°C 59% 3.0 mph W4.8 kmh W 10.0 mph16.1 kmh 29.74 in1007.1 mb 0.00 in0.0 mm 0.00 in0.0 mm 0.00 in0.0 mm
01:05 PM 81.8°F27.7°C 67.1°F19.5°C 61% 3.0 mph W4.8 kmh W 10.0 mph16.1 kmh 29.74 in1007.1 mb 0.00 in0.0 mm 0.00 in0.0 mm 0.00 in0.0 mm
01:10 PM 81.4°F27.4°C 66.2°F19.0°C 60% 2.0 mph WNW3.2 kmh WNW 10.0 mph16.1 kmh 29.74 in1007.1 mb 0.00 in0.0 mm 0.00 in0.0 mm 0.00 in0.0 mm
01:15 PM 81.7°F27.6°C 66.0°F18.9°C 59% 7.0 mph W11.3 kmh W 10.0 mph16.1 kmh 29.74 in1007.1 mb 0.00 in0.0 mm 0.00 in0.0 mm 0.00 in0.0 mm
01:20 PM 81.7°F27.6°C 65.0°F18.3°C 57% 3.0 mph W4.8 kmh W 12.0 mph19.3 kmh 29.74 in1007.1 mb 0.00 in0.0 mm 0.00 in0.0 mm 0.00 in0.0 mm
01:25 PM 81.4°F27.4°C 63.7°F17.6°C 55% 3.0 mph WSW4.8 kmh WSW 12.0 mph19.3 kmh 29.74 in1007.1 mb 0.00 in0.0 mm 0.00 in0.0 mm 0.00 in0.0 mm
01:30 PM 81.6°F27.6°C 62.3°F16.8°C 52% 9.0 mph W14.5 kmh W 12.0 mph19.3 kmh 29.74 in1007.1 mb 0.00 in0.0 mm 0.00 in0.0 mm 0.00 in0.0 mm
01:35 PM 82.0°F27.8°C 63.2°F17.3°C 53% 6.0 mph W9.7 kmh W 12.0 mph19.3 kmh 29.73 in1006.8 mb 0.00 in0.0 mm 0.00 in0.0 mm 0.00 in0.0 mm
01:40 PM 81.7°F27.6°C 64.5°F18.1°C 56% 3.0 mph W4.8 kmh W 12.0 mph19.3 kmh 29.74 in1007.1 mb 0.00 in0.0 mm 0.00 in0.0 mm 0.00 in0.0 mm
01:45 PM 81.8°F27.7°C 63.0°F17.2°C 53% 7.0 mph WNW11.3 kmh WNW 8.0 mph12.9 kmh 29.73 in1006.8 mb 0.00 in0.0 mm 0.00 in0.0 mm 0.00 in0.0 mm
01:50 PM 81.6°F27.6°C 61.2°F16.2°C 50% 8.0 mph NW12.9 kmh NW 11.0 mph17.7 kmh 29.73 in1006.8 mb 0.00 in0.0 mm 0.00 in0.0 mm 0.00 in0.0 mm
01:55 PM 81.9°F27.7°C 61.5°F16.4°C 50% 2.0 mph WNW3.2 kmh WNW 11.0 mph17.7 kmh 29.74 in1007.1 mb 0.00 in0.0 mm 0.00 in0.0 mm 0.00 in0.0 mm
02:00 PM 81.7°F27.6°C 60.7°F15.9°C 49% 4.0 mph NW6.4 kmh NW 10.0 mph16.1 kmh 29.74 in1007.1 mb 0.00 in0.0 mm 0.00 in0.0 mm 0.00 in0.0 mm
02:05 PM 81.8°F27.7°C 62.5°F16.9°C 52% 4.0 mph W6.4 kmh W 10.0 mph16.1 kmh 29.73 in1006.8 mb 0.00 in0.0 mm 0.00 in0.0 mm 0.00 in0.0 mm
02:10 PM 82.2°F27.9°C 62.3°F16.8°C 51% 5.0 mph WNW8.0 kmh WNW 10.0 mph16.1 kmh 29.73 in1006.8 mb 0.00 in0.0 mm 0.00 in0.0 mm 0.00 in0.0 mm
02:15 PM 82.3°F27.9°C 62.4°F16.9°C 51% 5.0 mph WNW8.0 kmh WNW 10.0 mph16.1 kmh 29.73 in1006.8 mb 0.00 in0.0 mm 0.00 in0.0 mm 0.00 in0.0 mm
02:20 PM 82.3°F27.9°C 61.8°F16.6°C 50% 6.0 mph WSW9.7 kmh WSW 10.0 mph16.1 kmh 29.73 in1006.8 mb 0.00 in0.0 mm 0.00 in0.0 mm 0.00 in0.0 mm
02:25 PM 81.9°F27.7°C 61.5°F16.4°C 50% 3.0 mph WNW4.8 kmh WNW 10.0 mph16.1 kmh 29.73 in1006.8 mb 0.00 in0.0 mm 0.00 in0.0 mm 0.00 in0.0 mm
02:30 PM 81.7°F27.6°C 61.8°F16.6°C 51% 9.0 mph WNW14.5 kmh WNW 13.0 mph20.9 kmh 29.73 in1006.8 mb 0.00 in0.0 mm 0.00 in0.0 mm 0.00 in0.0 mm
02:35 PM 81.7°F27.6°C 62.9°F17.2°C 53% 5.0 mph WNW8.0 kmh WNW 13.0 mph20.9 kmh 29.73 in1006.8 mb 0.00 in0.0 mm 0.00 in0.0 mm 0.00 in0.0 mm
02:40 PM 81.8°F27.7°C 61.9°F16.6°C 51% 7.0 mph NW11.3 kmh NW 13.0 mph20.9 kmh 29.73 in1006.8 mb 0.00 in0.0 mm 0.00 in0.0 mm 0.00 in0.0 mm
02:45 PM 82.2°F27.9°C 63.4°F17.4°C 53% 2.0 mph WNW3.2 kmh WNW 9.0 mph14.5 kmh 29.73 in1006.8 mb 0.00 in0.0 mm 0.00 in0.0 mm 0.00 in0.0 mm
02:50 PM 82.1°F27.8°C 61.6°F16.4°C 50% 2.0 mph NW3.2 kmh NW 10.0 mph16.1 kmh 29.73 in1006.8 mb 0.00 in0.0 mm 0.00 in0.0 mm 0.00 in0.0 mm
02:55 PM 82.2°F27.9°C 62.8°F17.1°C 52% 7.0 mph WNW11.3 kmh WNW 10.0 mph16.1 kmh 29.73 in1006.8 mb 0.00 in0.0 mm 0.00 in0.0 mm 0.00 in0.0 mm
03:00 PM 82.1°F27.8°C 62.2°F16.8°C 51% 4.0 mph WNW6.4 kmh WNW 9.0 mph14.5 kmh 29.72 in1006.4 mb 0.00 in0.0 mm 0.00 in0.0 mm 0.00 in0.0 mm
03:05 PM 81.8°F27.7°C 61.4°F16.3°C 50% 4.0 mph WNW6.4 kmh WNW 10.0 mph16.1 kmh 29.73 in1006.8 mb 0.00 in0.0 mm 0.00 in0.0 mm 0.00 in0.0 mm
03:10 PM 81.6°F27.6°C 60.0°F15.6°C 48% 8.0 mph NW12.9 kmh NW 11.0 mph17.7 kmh 29.73 in1006.8 mb 0.00 in0.0 mm 0.00 in0.0 mm 0.00 in0.0 mm
03:15 PM 81.8°F27.7°C 60.8°F16.0°C 49% 4.0 mph W6.4 kmh W 10.0 mph16.1 kmh 29.73 in1006.8 mb 0.00 in0.0 mm 0.00 in0.0 mm 0.00 in0.0 mm
03:20 PM 82.0°F27.8°C 61.0°F16.1°C 49% 7.0 mph WNW11.3 kmh WNW 10.0 mph16.1 kmh 29.73 in1006.8 mb 0.00 in0.0 mm 0.00 in0.0 mm 0.00 in0.0 mm
03:25 PM 81.7°F27.6°C 59.5°F15.3°C 47% 3.0 mph WNW4.8 kmh WNW 10.0 mph16.1 kmh 29.73 in1006.8 mb 0.00 in0.0 mm 0.00 in0.0 mm 0.00 in0.0 mm
03:30 PM 82.1°F27.8°C 59.9°F15.5°C 47% 2.0 mph WNW3.2 kmh WNW 7.0 mph11.3 kmh 29.73 in1006.8 mb 0.00 in0.0 mm 0.00 in0.0 mm 0.00 in0.0 mm
03:35 PM 82.3°F27.9°C 61.3°F16.3°C 49% 2.0 mph WNW3.2 kmh WNW 7.0 mph11.3 kmh 29.73 in1006.8 mb 0.00 in0.0 mm 0.00 in0.0 mm 0.00 in0.0 mm
03:40 PM 82.1°F27.8°C 61.6°F16.4°C 50% 5.0 mph NW8.0 kmh NW 8.0 mph12.9 kmh 29.72 in1006.4 mb 0.00 in0.0 mm 0.00 in0.0 mm 0.00 in0.0 mm
03:45 PM 82.0°F27.8°C 60.4°F15.8°C 48% 1.0 mph WNW1.6 kmh WNW 5.0 mph8.0 kmh 29.72 in1006.4 mb 0.00 in0.0 mm 0.00 in0.0 mm 0.00 in0.0 mm
03:50 PM 81.6°F27.6°C 60.6°F15.9°C 49% 4.0 mph NW6.4 kmh NW 7.0 mph11.3 kmh 29.72 in1006.4 mb 0.00 in0.0 mm 0.00 in0.0 mm 0.00 in0.0 mm
03:55 PM 80.7°F27.1°C 60.4°F15.8°C 50% 4.0 mph NW6.4 kmh NW 8.0 mph12.9 kmh 29.72 in1006.4 mb 0.00 in0.0 mm 0.00 in0.0 mm 0.00 in0.0 mm
04:00 PM 81.0°F27.2°C 61.7°F16.5°C 52% 2.0 mph NW3.2 kmh NW 4.0 mph6.4 kmh 29.72 in1006.4 mb 0.00 in0.0 mm 0.00 in0.0 mm 0.00 in0.0 mm
04:05 PM 81.4°F27.4°C 61.6°F16.4°C 51% 3.0 mph NW4.8 kmh NW 5.0 mph8.0 kmh 29.72 in1006.4 mb 0.00 in0.0 mm 0.00 in0.0 mm 0.00 in0.0 mm
04:10 PM 80.5°F26.9°C 62.9°F17.2°C 55% 4.0 mph NW6.4 kmh NW 5.0 mph8.0 kmh 29.72 in1006.4 mb 0.00 in0.0 mm 0.00 in0.0 mm 0.00 in0.0 mm
04:15 PM 80.3°F26.8°C 61.1°F16.2°C 52% 1.0 mph NW1.6 kmh NW 5.0 mph8.0 kmh 29.72 in1006.4 mb 0.00 in0.0 mm 0.00 in0.0 mm 0.00 in0.0 mm
04:20 PM 80.2°F26.8°C 62.6°F17.0°C 55% 3.0 mph NW4.8 kmh NW 5.0 mph8.0 kmh 29.72 in1006.4 mb 0.00 in0.0 mm 0.00 in0.0 mm 0.00 in0.0 mm
04:25 PM 79.9°F26.6°C 61.8°F16.6°C 54% 2.0 mph NW3.2 kmh NW 5.0 mph8.0 kmh 29.72 in1006.4 mb 0.00 in0.0 mm 0.00 in0.0 mm 0.00 in0.0 mm
04:30 PM 79.7°F26.5°C 64.6°F18.1°C 60% 3.0 mph NW4.8 kmh NW 5.0 mph8.0 kmh 29.72 in1006.4 mb 0.00 in0.0 mm 0.00 in0.0 mm 0.00 in0.0 mm
04:35 PM 79.9°F26.6°C 63.3°F17.4°C 57% 3.0 mph NW4.8 kmh NW 5.0 mph8.0 kmh 29.72 in1006.4 mb 0.00 in0.0 mm 0.00 in0.0 mm 0.00 in0.0 mm
04:40 PM 79.8°F26.6°C 67.4°F19.7°C 66% 3.0 mph NW4.8 kmh NW 5.0 mph8.0 kmh 29.72 in1006.4 mb 0.00 in0.0 mm 0.00 in0.0 mm 0.00 in0.0 mm
04:45 PM 79.5°F26.4°C 65.4°F18.6°C 62% 3.0 mph NW4.8 kmh NW 4.0 mph6.4 kmh 29.72 in1006.4 mb 0.00 in0.0 mm 0.00 in0.0 mm 0.00 in0.0 mm
04:50 PM 79.5°F26.4°C 63.9°F17.7°C 59% 3.0 mph NW4.8 kmh NW 4.0 mph6.4 kmh 29.72 in1006.4 mb 0.00 in0.0 mm 0.00 in0.0 mm 0.00 in0.0 mm
04:55 PM 79.4°F26.3°C 64.3°F17.9°C 60% 4.0 mph NW6.4 kmh NW 4.0 mph6.4 kmh 29.72 in1006.4 mb 0.00 in0.0 mm 0.00 in0.0 mm 0.00 in0.0 mm
05:00 PM 79.4°F26.3°C 63.8°F17.7°C 59% 3.0 mph NW4.8 kmh NW 3.0 mph4.8 kmh 29.72 in1006.4 mb 0.00 in0.0 mm 0.00 in0.0 mm 0.00 in0.0 mm
05:05 PM 79.6°F26.4°C 65.0°F18.3°C 61% 3.0 mph NW4.8 kmh NW 3.0 mph4.8 kmh 29.71 in1006.1 mb 0.00 in0.0 mm 0.00 in0.0 mm 0.00 in0.0 mm
05:10 PM 79.7°F26.5°C 66.0°F18.9°C 63% 3.0 mph NW4.8 kmh NW 4.0 mph6.4 kmh 29.72 in1006.4 mb 0.00 in0.0 mm 0.00 in0.0 mm 0.00 in0.0 mm
05:15 PM 79.4°F26.3°C 64.3°F17.9°C 60% 3.0 mph NW4.8 kmh NW 4.0 mph6.4 kmh 29.71 in1006.1 mb 0.00 in0.0 mm 0.00 in0.0 mm 0.00 in0.0 mm
05:20 PM 79.4°F26.3°C 65.3°F18.5°C 62% 2.0 mph NW3.2 kmh NW 4.0 mph6.4 kmh 29.71 in1006.1 mb 0.00 in0.0 mm 0.00 in0.0 mm 0.00 in0.0 mm
05:25 PM 79.3°F26.3°C 64.2°F17.9°C 60% 2.0 mph NW3.2 kmh NW 4.0 mph6.4 kmh 29.71 in1006.1 mb 0.00 in0.0 mm 0.00 in0.0 mm 0.00 in0.0 mm
05:30 PM 79.3°F26.3°C 64.2°F17.9°C 60% 3.0 mph NW4.8 kmh NW 3.0 mph4.8 kmh 29.71 in1006.1 mb 0.00 in0.0 mm 0.00 in0.0 mm 0.00 in0.0 mm
05:35 PM 79.4°F26.3°C 63.4°F17.4°C 58% 3.0 mph NW4.8 kmh NW 3.0 mph4.8 kmh 29.71 in1006.1 mb 0.00 in0.0 mm 0.00 in0.0 mm 0.00 in0.0 mm
05:40 PM 79.2°F26.2°C 64.1°F17.8°C 60% 2.0 mph NW3.2 kmh NW 3.0 mph4.8 kmh 29.72 in1006.4 mb 0.00 in0.0 mm 0.00 in0.0 mm 0.00 in0.0 mm
05:45 PM 79.3°F26.3°C 65.2°F18.4°C 62% 3.0 mph NW4.8 kmh NW 3.0 mph4.8 kmh 29.72 in1006.4 mb 0.00 in0.0 mm 0.00 in0.0 mm 0.00 in0.0 mm
05:50 PM 79.3°F26.3°C 63.7°F17.6°C 59% 1.0 mph NW1.6 kmh NW 3.0 mph4.8 kmh 29.72 in1006.4 mb 0.00 in0.0 mm 0.00 in0.0 mm 0.00 in0.0 mm
05:55 PM 79.4°F26.3°C 63.8°F17.7°C 59% 1.0 mph NW1.6 kmh NW 3.0 mph4.8 kmh 29.71 in1006.1 mb 0.00 in0.0 mm 0.00 in0.0 mm 0.00 in0.0 mm
06:00 PM 79.3°F26.3°C 63.7°F17.6°C 59% Calm Calm 2.0 mph3.2 kmh 29.71 in1006.1 mb 0.00 in0.0 mm 0.00 in0.0 mm 0.00 in0.0 mm
06:05 PM 79.3°F26.3°C 63.3°F17.4°C 58% Calm Calm 2.0 mph3.2 kmh 29.72 in1006.4 mb 0.00 in0.0 mm 0.00 in0.0 mm 0.00 in0.0 mm
06:10 PM 79.3°F26.3°C 62.8°F17.1°C 57% Calm Calm 2.0 mph3.2 kmh 29.71 in1006.1 mb 0.00 in0.0 mm 0.00 in0.0 mm 0.00 in0.0 mm
06:15 PM 79.4°F26.3°C 62.9°F17.2°C 57% Calm Calm -- 29.71 in1006.1 mb 0.00 in0.0 mm 0.00 in0.0 mm 0.00 in0.0 mm
06:20 PM 79.3°F26.3°C 63.3°F17.4°C 58% Calm Calm -- 29.71 in1006.1 mb 0.00 in0.0 mm 0.00 in0.0 mm 0.00 in0.0 mm
06:25 PM 79.1°F26.2°C 64.0°F17.8°C 60% Calm Calm -- 29.72 in1006.4 mb 0.00 in0.0 mm 0.00 in0.0 mm 0.00 in0.0 mm
06:30 PM 78.9°F26.1°C 62.4°F16.9°C 57% Calm Calm -- 29.72 in1006.4 mb 0.00 in0.0 mm 0.00 in0.0 mm 0.00 in0.0 mm
06:35 PM 79.0°F26.1°C 63.0°F17.2°C 58% 1.0 mph NW1.6 kmh NW 2.0 mph3.2 kmh 29.72 in1006.4 mb 0.00 in0.0 mm 0.00 in0.0 mm 0.00 in0.0 mm
06:40 PM 78.9°F26.1°C 63.9°F17.7°C 60% Calm Calm 2.0 mph3.2 kmh 29.72 in1006.4 mb 0.00 in0.0 mm 0.00 in0.0 mm 0.00 in0.0 mm
06:45 PM 78.7°F25.9°C 63.7°F17.6°C 60% 1.0 mph NW1.6 kmh NW 2.0 mph3.2 kmh 29.72 in1006.4 mb 0.00 in0.0 mm 0.00 in0.0 mm 0.00 in0.0 mm
06:50 PM 78.8°F26.0°C 65.2°F18.4°C 63% Calm Calm 2.0 mph3.2 kmh 29.72 in1006.4 mb 0.00 in0.0 mm 0.00 in0.0 mm 0.00 in0.0 mm
06:55 PM 78.9°F26.1°C 65.3°F18.5°C 63% Calm Calm 2.0 mph3.2 kmh 29.72 in1006.4 mb 0.00 in0.0 mm 0.00 in0.0 mm 0.00 in0.0 mm
07:00 PM 78.9°F26.1°C 64.8°F18.2°C 62% Calm Calm -- 29.72 in1006.4 mb 0.00 in0.0 mm 0.00 in0.0 mm 0.00 in0.0 mm
07:05 PM 78.8°F26.0°C 64.7°F18.2°C 62% Calm Calm -- 29.72 in1006.4 mb 0.00 in0.0 mm 0.00 in0.0 mm 0.00 in0.0 mm
07:10 PM 78.8°F26.0°C 66.1°F18.9°C 65% Calm Calm -- 29.72 in1006.4 mb 0.00 in0.0 mm 0.00 in0.0 mm 0.00 in0.0 mm
07:15 PM 78.7°F25.9°C 66.0°F18.9°C 65% Calm Calm 2.0 mph3.2 kmh 29.72 in1006.4 mb 0.00 in0.0 mm 0.00 in0.0 mm 0.00 in0.0 mm
07:20 PM 78.3°F25.7°C 64.7°F18.2°C 63% 1.0 mph NW1.6 kmh NW 2.0 mph3.2 kmh 29.73 in1006.8 mb 0.00 in0.0 mm 0.00 in0.0 mm 0.00 in0.0 mm
07:25 PM 78.2°F25.7°C 65.9°F18.8°C 66% 1.0 mph NW1.6 kmh NW 4.0 mph6.4 kmh 29.73 in1006.8 mb 0.00 in0.0 mm 0.00 in0.0 mm 0.00 in0.0 mm
07:30 PM 77.8°F25.4°C 65.1°F18.4°C 65% 1.0 mph NW1.6 kmh NW 1.0 mph1.6 kmh 29.73 in1006.8 mb 0.00 in0.0 mm 0.00 in0.0 mm 0.00 in0.0 mm
07:35 PM 77.6°F25.3°C 65.4°F18.6°C 66% 2.0 mph NW3.2 kmh NW 3.0 mph4.8 kmh 29.73 in1006.8 mb 0.00 in0.0 mm 0.00 in0.0 mm 0.00 in0.0 mm
07:40 PM 77.4°F25.2°C 66.0°F18.9°C 68% 1.0 mph NW1.6 kmh NW 3.0 mph4.8 kmh 29.73 in1006.8 mb 0.00 in0.0 mm 0.00 in0.0 mm 0.00 in0.0 mm
07:45 PM 77.2°F25.1°C 66.3°F19.1°C 69% Calm Calm -- 29.73 in1006.8 mb 0.00 in0.0 mm 0.00 in0.0 mm 0.00 in0.0 mm
07:50 PM 76.9°F24.9°C 66.0°F18.9°C 69% Calm Calm -- 29.73 in1006.8 mb 0.00 in0.0 mm 0.00 in0.0 mm 0.00 in0.0 mm
07:55 PM 76.7°F24.8°C 65.8°F18.8°C 69% Calm Calm 1.0 mph1.6 kmh 29.73 in1006.8 mb 0.00 in0.0 mm 0.00 in0.0 mm 0.00 in0.0 mm
08:00 PM 76.4°F24.7°C 65.1°F18.4°C 68% Calm Calm -- 29.73 in1006.8 mb 0.00 in0.0 mm 0.00 in0.0 mm 0.00 in0.0 mm
08:05 PM 76.2°F24.6°C 65.3°F18.5°C 69% Calm Calm -- 29.73 in1006.8 mb 0.00 in0.0 mm 0.00 in0.0 mm 0.00 in0.0 mm
08:10 PM 76.1°F24.5°C 65.2°F18.4°C 69% Calm Calm -- 29.74 in1007.1 mb 0.00 in0.0 mm 0.00 in0.0 mm 0.00 in0.0 mm
08:15 PM 76.0°F24.4°C 65.5°F18.6°C 70% Calm Calm -- 29.74 in1007.1 mb 0.00 in0.0 mm 0.00 in0.0 mm 0.00 in0.0 mm
08:20 PM 76.0°F24.4°C 65.9°F18.8°C 71% Calm Calm -- 29.74 in1007.1 mb 0.00 in0.0 mm 0.00 in0.0 mm 0.00 in0.0 mm
08:25 PM 75.8°F24.3°C 65.7°F18.7°C 71% Calm Calm -- 29.74 in1007.1 mb 0.00 in0.0 mm 0.00 in0.0 mm 0.00 in0.0 mm
08:30 PM 75.7°F24.3°C 65.2°F18.4°C 70% Calm Calm -- 29.74 in1007.1 mb 0.00 in0.0 mm 0.00 in0.0 mm 0.00 in0.0 mm
08:35 PM 75.5°F24.2°C 65.0°F18.3°C 70% Calm Calm -- 29.74 in1007.1 mb 0.00 in0.0 mm 0.00 in0.0 mm 0.00 in0.0 mm
08:40 PM 75.3°F24.1°C 64.4°F18.0°C 69% Calm Calm -- 29.74 in1007.1 mb 0.00 in0.0 mm 0.00 in0.0 mm 0.00 in0.0 mm
08:45 PM 75.1°F23.9°C 64.7°F18.2°C 70% Calm Calm -- 29.73 in1006.8 mb 0.00 in0.0 mm 0.00 in0.0 mm 0.00 in0.0 mm
08:50 PM 75.0°F23.9°C 65.8°F18.8°C 73% Calm Calm -- 29.73 in1006.8 mb 0.00 in0.0 mm 0.00 in0.0 mm 0.00 in0.0 mm
08:55 PM 74.9°F23.8°C 66.8°F19.3°C 76% Calm Calm -- 29.74 in1007.1 mb 0.00 in0.0 mm 0.00 in0.0 mm 0.00 in0.0 mm
09:00 PM 74.9°F23.8°C 67.2°F19.6°C 77% Calm Calm -- 29.74 in1007.1 mb 0.00 in0.0 mm 0.00 in0.0 mm 0.00 in0.0 mm
09:05 PM 74.7°F23.7°C 67.4°F19.7°C 78% Calm Calm -- 29.74 in1007.1 mb 0.00 in0.0 mm 0.00 in0.0 mm 0.00 in0.0 mm
09:10 PM 74.5°F23.6°C 67.2°F19.6°C 78% Calm Calm -- 29.74 in1007.1 mb 0.00 in0.0 mm 0.00 in0.0 mm 0.00 in0.0 mm
09:15 PM 74.3°F23.5°C 67.4°F19.7°C 79% Calm Calm -- 29.74 in1007.1 mb 0.00 in0.0 mm 0.00 in0.0 mm 0.00 in0.0 mm
09:20 PM 74.1°F23.4°C 66.8°F19.3°C 78% Calm Calm -- 29.74 in1007.1 mb 0.00 in0.0 mm 0.00 in0.0 mm 0.00 in0.0 mm
09:25 PM 73.9°F23.3°C 66.6°F19.2°C 78% Calm Calm -- 29.74 in1007.1 mb 0.00 in0.0 mm 0.00 in0.0 mm 0.00 in0.0 mm
09:30 PM 73.8°F23.2°C 66.5°F19.2°C 78% Calm Calm -- 29.74 in1007.1 mb 0.00 in0.0 mm 0.00 in0.0 mm 0.00 in0.0 mm
09:35 PM 73.7°F23.2°C 66.8°F19.3°C 79% Calm Calm -- 29.74 in1007.1 mb 0.00 in0.0 mm 0.00 in0.0 mm 0.00 in0.0 mm
09:40 PM 73.6°F23.1°C 66.7°F19.3°C 79% Calm Calm -- 29.74 in1007.1 mb 0.00 in0.0 mm 0.00 in0.0 mm 0.00 in0.0 mm
09:45 PM 73.3°F22.9°C 64.9°F18.3°C 75% Calm Calm -- 29.74 in1007.1 mb 0.00 in0.0 mm 0.00 in0.0 mm 0.00 in0.0 mm
09:50 PM 73.2°F22.9°C 64.8°F18.2°C 75% Calm Calm -- 29.74 in1007.1 mb 0.00 in0.0 mm 0.00 in0.0 mm 0.00 in0.0 mm
09:55 PM 73.2°F22.9°C 64.8°F18.2°C 75% Calm Calm -- 29.74 in1007.1 mb 0.00 in0.0 mm 0.00 in0.0 mm 0.00 in0.0 mm
10:00 PM 73.1°F22.8°C 64.3°F17.9°C 74% Calm Calm -- 29.74 in1007.1 mb 0.00 in0.0 mm 0.00 in0.0 mm 0.00 in0.0 mm
10:05 PM 73.0°F22.8°C 64.2°F17.9°C 74% Calm Calm -- 29.75 in1007.5 mb 0.00 in0.0 mm 0.00 in0.0 mm 0.00 in0.0 mm
10:10 PM 73.0°F22.8°C 64.6°F18.1°C 75% Calm Calm -- 29.74 in1007.1 mb 0.00 in0.0 mm 0.00 in0.0 mm 0.00 in0.0 mm
10:15 PM 72.9°F22.7°C 64.5°F18.1°C 75% Calm Calm -- 29.75 in1007.5 mb 0.00 in0.0 mm 0.00 in0.0 mm 0.00 in0.0 mm
10:20 PM 72.9°F22.7°C 64.9°F18.3°C 76% Calm Calm -- 29.75 in1007.5 mb 0.00 in0.0 mm 0.00 in0.0 mm 0.00 in0.0 mm
10:25 PM 72.8°F22.7°C 65.2°F18.4°C 77% Calm Calm -- 29.75 in1007.5 mb 0.00 in0.0 mm 0.00 in0.0 mm 0.00 in0.0 mm
10:30 PM 72.7°F22.6°C 64.7°F18.2°C 76% Calm Calm -- 29.75 in1007.5 mb 0.00 in0.0 mm 0.00 in0.0 mm 0.00 in0.0 mm
10:35 PM 72.6°F22.6°C 64.6°F18.1°C 76% Calm Calm -- 29.75 in1007.5 mb 0.00 in0.0 mm 0.00 in0.0 mm 0.00 in0.0 mm
10:40 PM 72.5°F22.5°C 64.9°F18.3°C 77% Calm Calm -- 29.74 in1007.1 mb 0.00 in0.0 mm 0.00 in0.0 mm 0.00 in0.0 mm
10:45 PM 72.4°F22.4°C 64.8°F18.2°C 77% Calm Calm -- 29.74 in1007.1 mb 0.00 in0.0 mm 0.00 in0.0 mm 0.00 in0.0 mm
10:50 PM 72.2°F22.3°C 63.8°F17.7°C 75% Calm Calm -- 29.74 in1007.1 mb 0.00 in0.0 mm 0.00 in0.0 mm 0.00 in0.0 mm
10:55 PM 72.1°F22.3°C 63.8°F17.7°C 75% Calm Calm -- 29.74 in1007.1 mb 0.00 in0.0 mm 0.00 in0.0 mm 0.00 in0.0 mm
11:00 PM 72.0°F22.2°C 64.0°F17.8°C 76% Calm Calm -- 29.74 in1007.1 mb 0.00 in0.0 mm 0.00 in0.0 mm 0.00 in0.0 mm
11:05 PM 72.0°F22.2°C 64.0°F17.8°C 76% Calm Calm -- 29.74 in1007.1 mb 0.00 in0.0 mm 0.00 in0.0 mm 0.00 in0.0 mm
11:10 PM 72.0°F22.2°C 64.8°F18.2°C 78% Calm Calm -- 29.74 in1007.1 mb 0.00 in0.0 mm 0.00 in0.0 mm 0.00 in0.0 mm
11:15 PM 72.0°F22.2°C 65.5°F18.6°C 80% Calm Calm -- 29.74 in1007.1 mb 0.00 in0.0 mm 0.00 in0.0 mm 0.00 in0.0 mm
11:20 PM 72.1°F22.3°C 65.6°F18.7°C 80% Calm Calm -- 29.73 in1006.8 mb 0.00 in0.0 mm 0.00 in0.0 mm 0.00 in0.0 mm
11:25 PM 72.0°F22.2°C 65.9°F18.8°C 81% Calm Calm -- 29.73 in1006.8 mb 0.00 in0.0 mm 0.00 in0.0 mm 0.00 in0.0 mm
11:30 PM 71.9°F22.2°C 65.8°F18.8°C 81% Calm Calm -- 29.74 in1007.1 mb 0.00 in0.0 mm 0.00 in0.0 mm 0.00 in0.0 mm
11:35 PM 71.9°F22.2°C 66.1°F18.9°C 82% Calm Calm -- 29.73 in1006.8 mb 0.00 in0.0 mm 0.00 in0.0 mm 0.00 in0.0 mm
11:40 PM 71.8°F22.1°C 66.4°F19.1°C 83% Calm Calm -- 29.73 in1006.8 mb 0.00 in0.0 mm 0.00 in0.0 mm 0.00 in0.0 mm
11:45 PM 71.7°F22.1°C 66.3°F19.1°C 83% Calm Calm -- 29.73 in1006.8 mb 0.00 in0.0 mm 0.00 in0.0 mm 0.00 in0.0 mm
11:50 PM 71.5°F21.9°C 66.1°F18.9°C 83% Calm Calm -- 29.73 in1006.8 mb 0.00 in0.0 mm 0.00 in0.0 mm 0.00 in0.0 mm
11:55 PM 71.3°F21.8°C 65.5°F18.6°C 82% Calm Calm -- 29.73 in1006.8 mb 0.00 in0.0 mm 0.00 in0.0 mm 0.00 in0.0 mm